createdAt,value
2019-04-30T00:01:16.993Z,101.67
2019-04-30T00:03:41.189Z,108.83
2019-04-30T00:06:09.935Z,100.62
2019-04-30T00:08:39.297Z,95.57
2019-04-30T00:11:10.786Z,95.12
2019-04-30T00:13:38.525Z,97.25
2019-04-30T00:16:07.267Z,92.10
2019-04-30T00:18:39.514Z,113.50
2019-04-30T00:21:09.934Z,125.92
2019-04-30T00:23:36.838Z,127.07
2019-04-30T00:26:10.334Z,127.65
2019-04-30T00:28:39.381Z,127.22
2019-04-30T00:31:06.512Z,125.67
2019-04-30T00:33:35.472Z,123.30
2019-04-30T00:36:04.977Z,132.78
2019-04-30T00:38:37.665Z,117.82
2019-04-30T00:41:06.753Z,134.07
2019-04-30T00:43:37.603Z,125.12
2019-04-30T00:46:05.689Z,113.08
2019-04-30T00:48:35.708Z,124.23
2019-04-30T00:51:07.479Z,127.78
2019-04-30T00:53:35.928Z,123.80
2019-04-30T00:56:05.701Z,125.72
2019-04-30T00:58:35.695Z,108.47
2019-04-30T01:01:17.463Z,123.80
2019-04-30T01:03:56.749Z,120.40
2019-04-30T01:06:28.637Z,114.50
2019-04-30T01:08:58.315Z,125.75
2019-04-30T01:11:26.329Z,124.37
2019-04-30T01:13:55.076Z,122.25
2019-04-30T01:16:30.118Z,134.65
2019-04-30T01:18:54.377Z,127.10
2019-04-30T01:21:23.244Z,127.85
2019-04-30T01:23:54.773Z,126.03
2019-04-30T01:26:27.761Z,119.45
2019-04-30T01:29:00.571Z,135.03
2019-04-30T01:31:25.668Z,123.18
2019-04-30T01:33:54.482Z,130.15
2019-04-30T01:36:23.254Z,130.93
2019-04-30T01:38:52.535Z,87.88
2019-04-30T01:41:27.562Z,97.50
2019-04-30T01:43:51.835Z,101.85
2019-04-30T01:46:20.968Z,97.17
2019-04-30T01:48:51.958Z,107.87
2019-04-30T01:51:21.806Z,107.72
2019-04-30T01:53:50.820Z,107.90
2019-04-30T01:56:28.875Z,104.47
2019-04-30T01:58:59.572Z,98.92
2019-04-30T02:01:31.196Z,104.25
2019-04-30T02:04:00.094Z,109.92
2019-04-30T02:06:29.465Z,109.57
2019-04-30T02:08:59.369Z,106.50
2019-04-30T02:11:28.863Z,113.30
2019-04-30T02:13:59.082Z,112.50
2019-04-30T02:16:29.035Z,143.90
2019-04-30T02:18:59.692Z,145.75
2019-04-30T02:21:30.333Z,151.57
2019-04-30T02:23:59.001Z,136.88
2019-04-30T02:26:28.656Z,144.97
2019-04-30T02:28:59.330Z,147.45
2019-04-30T02:31:30.752Z,143.02
2019-04-30T02:34:00.427Z,143.60
2019-04-30T02:36:40.050Z,140.15
2019-04-30T02:39:10.838Z,139.68
2019-04-30T02:41:41.244Z,142.00
2019-04-30T02:44:11.215Z,144.37
2019-04-30T02:46:41.754Z,137.80
2019-04-30T02:49:11.824Z,143.97
2019-04-30T02:51:42.505Z,143.87
2019-04-30T02:54:14.213Z,151.15
2019-04-30T02:56:44.594Z,149.72
2019-04-30T02:59:13.360Z,133.50
2019-04-30T03:01:42.173Z,143.75
2019-04-30T03:04:10.932Z,138.32
2019-04-30T03:06:40.323Z,155.43
2019-04-30T03:09:10.283Z,151.97
2019-04-30T03:11:40.582Z,151.18
2019-04-30T03:14:10.561Z,151.75
2019-04-30T03:16:41.720Z,137.07
2019-04-30T03:19:12.111Z,138.43
2019-04-30T03:21:42.521Z,147.13
2019-04-30T03:24:11.565Z,136.37
2019-04-30T03:26:40.588Z,141.05
2019-04-30T03:29:11.225Z,131.30
2019-04-30T03:31:44.037Z,130.90
2019-04-30T03:34:16.589Z,143.47
2019-04-30T03:36:40.835Z,137.25
2019-04-30T03:39:10.804Z,144.70
2019-04-30T03:41:41.389Z,132.45
2019-04-30T03:44:20.953Z,128.17
2019-04-30T03:46:40.952Z,123.87
2019-04-30T03:49:12.516Z,128.27
2019-04-30T03:51:40.528Z,134.70
2019-04-30T03:54:10.383Z,84.97
2019-04-30T03:56:40.493Z,96.47
2019-04-30T03:59:10.655Z,97.62
2019-04-30T04:01:49.734Z,104.83
2019-04-30T04:04:20.200Z,96.97
2019-04-30T04:06:53.631Z,103.53
2019-04-30T04:09:40.105Z,113.65
2019-04-30T04:12:21.035Z,116.60
2019-04-30T04:14:51.001Z,94.42
2019-04-30T04:17:20.704Z,114.03
2019-04-30T04:19:52.879Z,146.18
2019-04-30T04:22:22.281Z,142.10
2019-04-30T04:24:52.235Z,136.95
2019-04-30T04:27:20.961Z,133.85
2019-04-30T04:29:51.140Z,132.25
2019-04-30T04:32:23.959Z,137.30
2019-04-30T04:34:50.923Z,135.07
2019-04-30T04:37:20.337Z,128.97
2019-04-30T04:39:50.170Z,128.85
2019-04-30T04:42:20.557Z,126.27
2019-04-30T04:44:50.129Z,140.07
2019-04-30T04:47:20.235Z,133.12
2019-04-30T04:49:53.287Z,126.38
2019-04-30T04:52:21.474Z,122.98
2019-04-30T04:54:50.859Z,125.30
2019-04-30T04:57:22.705Z,128.05
2019-04-30T04:59:50.365Z,126.38
2019-04-30T05:02:39.509Z,111.37
2019-04-30T05:05:09.629Z,129.25
2019-04-30T05:07:39.950Z,126.02
2019-04-30T05:10:09.534Z,114.17
2019-04-30T05:12:39.791Z,122.33
2019-04-30T05:15:09.676Z,118.50
2019-04-30T05:17:39.720Z,87.53
2019-04-30T05:20:10.066Z,96.72
2019-04-30T05:22:39.119Z,94.92
2019-04-30T05:25:09.050Z,100.53
2019-04-30T05:27:39.225Z,100.80
2019-04-30T05:30:11.775Z,97.78
2019-04-30T05:32:39.454Z,99.45
2019-04-30T05:35:09.571Z,102.58
2019-04-30T05:37:38.600Z,107.35
2019-04-30T05:40:09.145Z,108.45
2019-04-30T05:42:38.736Z,105.67
2019-04-30T05:45:09.313Z,102.67
2019-04-30T05:47:38.854Z,97.15
2019-04-30T05:50:09.004Z,98.72
2019-04-30T05:52:39.817Z,109.37
2019-04-30T05:55:08.718Z,102.35
2019-04-30T05:57:40.809Z,104.12
2019-04-30T06:00:10.019Z,122.40
2019-04-30T06:02:40.000Z,140.97
2019-04-30T06:05:09.607Z,133.37
2019-04-30T06:07:39.447Z,135.60
2019-04-30T06:10:10.544Z,138.47
2019-04-30T06:12:59.479Z,122.58
2019-04-30T06:15:30.038Z,133.00
2019-04-30T06:18:02.875Z,134.53
2019-04-30T06:20:29.193Z,128.20
2019-04-30T06:22:59.693Z,129.27
2019-04-30T06:25:41.104Z,128.67
2019-04-30T06:27:59.753Z,132.73
2019-04-30T06:30:29.726Z,131.27
2019-04-30T06:32:59.608Z,117.77
2019-04-30T06:35:29.365Z,125.50
2019-04-30T06:37:59.103Z,124.20
2019-04-30T06:40:29.286Z,129.12
2019-04-30T06:43:00.724Z,116.88
2019-04-30T06:45:31.189Z,122.33
2019-04-30T06:48:02.602Z,118.90
2019-04-30T06:50:31.565Z,118.20
2019-04-30T06:53:01.693Z,122.30
2019-04-30T06:55:30.980Z,120.08
2019-04-30T06:58:11.487Z,131.23
2019-04-30T07:00:40.164Z,117.13
2019-04-30T07:03:09.643Z,120.77
2019-04-30T07:05:39.110Z,122.90
2019-04-30T07:08:36.341Z,131.27
2019-04-30T07:11:14.720Z,116.22
2019-04-30T07:13:45.565Z,112.50
2019-04-30T07:16:14.577Z,117.10
2019-04-30T07:18:43.416Z,118.00
2019-04-30T07:21:12.153Z,109.95
2019-04-30T07:23:40.920Z,113.20
2019-04-30T07:26:13.740Z,109.97
2019-04-30T07:28:46.559Z,91.37
2019-04-30T07:31:14.362Z,88.82
2019-04-30T07:33:40.977Z,90.60
2019-04-30T07:36:09.870Z,97.02
2019-04-30T07:38:45.727Z,91.37
2019-04-30T07:41:09.624Z,94.60
2019-04-30T07:43:39.234Z,95.97
2019-04-30T07:46:09.312Z,88.55
2019-04-30T07:48:40.254Z,94.10
2019-04-30T07:51:10.314Z,102.92
2019-04-30T07:53:40.454Z,86.57
2019-04-30T07:56:24.272Z,101.47
2019-04-30T07:58:39.802Z,125.20
2019-04-30T08:01:10.300Z,112.77
2019-04-30T08:03:58.982Z,120.55
2019-04-30T08:09:00.846Z,110.48
2019-04-30T08:09:35.580Z,111.88
2019-04-30T08:11:29.467Z,116.40
2019-04-30T08:13:58.928Z,119.07
2019-04-30T08:16:28.748Z,102.50
2019-04-30T08:18:59.203Z,117.53
2019-04-30T08:21:28.825Z,108.03
2019-04-30T08:24:00.722Z,101.35
2019-04-30T08:26:28.699Z,107.25
2019-04-30T08:28:59.796Z,110.83
2019-04-30T08:31:29.210Z,109.75
2019-04-30T08:33:59.128Z,112.12
2019-04-30T08:36:29.773Z,114.60
2019-04-30T08:38:59.658Z,108.07
2019-04-30T08:41:29.398Z,102.15
2019-04-30T08:43:59.785Z,104.12
2019-04-30T08:46:28.758Z,100.90
2019-04-30T08:48:58.763Z,97.92
2019-04-30T08:51:30.519Z,98.27
2019-04-30T08:53:58.718Z,95.47
2019-04-30T08:56:29.626Z,101.67
2019-04-30T08:58:59.412Z,102.07
2019-04-30T09:01:29.414Z,95.32
2019-04-30T09:03:59.658Z,80.00
2019-04-30T09:06:29.857Z,64.65
2019-04-30T09:08:59.391Z,66.60
2019-04-30T09:11:34.106Z,71.12
2019-04-30T09:13:58.740Z,77.70
2019-04-30T09:16:29.313Z,77.37
2019-04-30T09:18:59.487Z,72.05
2019-04-30T09:21:29.982Z,80.20
2019-04-30T09:23:59.430Z,105.03
2019-04-30T09:26:29.075Z,97.25
2019-04-30T09:28:59.290Z,95.38
2019-04-30T09:31:29.589Z,108.05
2019-04-30T09:34:00.761Z,97.47
2019-04-30T09:36:29.351Z,89.83
2019-04-30T09:39:01.002Z,97.85
2019-04-30T09:41:28.860Z,100.35
2019-04-30T09:43:59.648Z,93.22
2019-04-30T09:46:29.980Z,104.53
2019-04-30T09:48:59.767Z,100.05
2019-04-30T09:51:30.457Z,102.85
2019-04-30T09:54:02.319Z,94.30
2019-04-30T09:56:29.574Z,97.50
2019-04-30T09:58:59.246Z,89.90
2019-04-30T10:01:28.161Z,95.97
2019-04-30T10:03:57.349Z,105.85
2019-04-30T10:06:39.030Z,93.35
2019-04-30T10:08:59.501Z,101.35
2019-04-30T10:11:35.528Z,87.22
2019-04-30T10:14:04.532Z,90.12
2019-04-30T10:16:50.053Z,94.93
2019-04-30T10:19:19.204Z,93.50
2019-04-30T10:21:48.999Z,90.97
2019-04-30T10:24:19.623Z,93.52
2019-04-30T10:26:48.417Z,94.72
2019-04-30T10:29:17.961Z,95.80
2019-04-30T10:31:48.850Z,97.85
2019-04-30T10:34:17.285Z,88.00
2019-04-30T10:36:46.220Z,81.08
2019-04-30T10:39:14.981Z,82.37
2019-04-30T10:41:43.733Z,87.78
2019-04-30T10:44:12.470Z,89.67
2019-04-30T10:46:41.237Z,86.97
2019-04-30T10:49:10.054Z,97.37
2019-04-30T10:51:38.935Z,90.07
2019-04-30T10:54:08.853Z,88.30
2019-04-30T10:56:37.718Z,82.67
2019-04-30T10:59:06.452Z,93.60
2019-04-30T11:01:35.188Z,83.12
2019-04-30T11:04:06.357Z,98.78
2019-04-30T11:06:35.292Z,87.45
2019-04-30T11:09:05.728Z,86.57
2019-04-30T11:11:34.547Z,87.82
2019-04-30T11:14:03.308Z,71.67
2019-04-30T11:16:32.044Z,79.37
2019-04-30T11:19:00.851Z,86.67
2019-04-30T11:21:29.704Z,86.87
2019-04-30T11:23:59.512Z,75.28
2019-04-30T11:26:31.106Z,79.57
2019-04-30T11:28:59.008Z,75.83
2019-04-30T11:31:29.617Z,89.10
2019-04-30T11:34:00.199Z,84.67
2019-04-30T11:36:29.274Z,87.92
2019-04-30T11:38:58.622Z,86.20
2019-04-30T11:41:30.904Z,92.70
2019-04-30T11:43:59.473Z,79.82
2019-04-30T11:46:49.478Z,88.37
2019-04-30T11:49:18.346Z,85.07
2019-04-30T11:51:47.089Z,80.12
2019-04-30T11:54:15.825Z,68.15
2019-04-30T11:56:44.596Z,62.65
2019-04-30T11:59:13.409Z,66.15
2019-04-30T12:01:42.549Z,66.17
2019-04-30T12:04:11.297Z,70.17
2019-04-30T12:06:40.133Z,69.97
2019-04-30T12:09:14.758Z,80.17
2019-04-30T12:11:45.281Z,85.40
2019-04-30T12:14:14.026Z,81.90
2019-04-30T12:16:42.872Z,86.85
2019-04-30T12:19:11.620Z,91.53
2019-04-30T12:21:40.689Z,90.87
2019-04-30T12:24:09.429Z,86.17
2019-04-30T12:26:38.888Z,80.87
2019-04-30T12:29:08.968Z,81.47
2019-04-30T12:31:38.337Z,81.25
2019-04-30T12:34:07.070Z,79.95
2019-04-30T12:36:35.836Z,96.20
2019-04-30T12:39:06.094Z,78.55
2019-04-30T12:41:34.857Z,81.87
2019-04-30T12:44:03.592Z,92.23
2019-04-30T12:46:32.435Z,99.23
2019-04-30T12:49:05.520Z,94.95
2019-04-30T12:51:45.636Z,86.78
2019-04-30T12:54:10.813Z,83.87
2019-04-30T12:56:43.900Z,78.25
2019-04-30T12:59:12.710Z,81.45
2019-04-30T13:01:41.752Z,70.97
2019-04-30T13:04:10.490Z,69.87
2019-04-30T13:06:39.670Z,71.40
2019-04-30T13:09:10.780Z,80.07
2019-04-30T13:11:40.869Z,70.10
2019-04-30T13:14:11.121Z,65.22
2019-04-30T13:16:40.413Z,64.27
2019-04-30T13:19:09.365Z,64.03
2019-04-30T13:21:39.546Z,55.10
2019-04-30T13:24:08.379Z,62.85
2019-04-30T13:26:37.152Z,53.07
2019-04-30T13:29:07.596Z,52.67
2019-04-30T13:31:36.433Z,53.58
2019-04-30T13:34:23.521Z,56.30
2019-04-30T13:36:52.369Z,56.05
2019-04-30T13:39:22.781Z,53.20
2019-04-30T13:42:15.845Z,54.80
2019-04-30T13:44:40.286Z,49.95
2019-04-30T13:47:10.823Z,63.20
2019-04-30T13:49:42.253Z,51.48
2019-04-30T13:52:11.024Z,50.35
2019-04-30T13:54:39.796Z,52.58
2019-04-30T13:57:09.813Z,50.67
2019-04-30T13:59:38.719Z,52.78
2019-04-30T14:02:08.771Z,46.73
2019-04-30T14:04:55.668Z,45.80
2019-04-30T14:07:26.089Z,48.17
2019-04-30T14:09:54.934Z,67.15
2019-04-30T14:12:23.664Z,53.27
2019-04-30T14:14:52.505Z,49.05
2019-04-30T14:19:54.555Z,53.42
2019-04-30T14:22:23.362Z,147.57
2019-04-30T14:24:52.190Z,56.53
2019-04-30T14:27:20.929Z,49.58
2019-04-30T14:29:49.696Z,70.05
2019-04-30T14:32:18.653Z,44.10
2019-04-30T14:34:50.440Z,54.93
2019-04-30T14:37:17.876Z,44.53
2019-04-30T14:39:46.646Z,52.08
2019-04-30T14:42:16.093Z,44.08
2019-04-30T14:44:46.238Z,44.63
2019-04-30T14:47:30.962Z,47.60
2019-04-30T14:50:04.812Z,48.95
2019-04-30T14:52:32.721Z,56.68
2019-04-30T14:55:18.793Z,58.33
2019-04-30T14:57:52.305Z,54.30
2019-04-30T15:00:32.066Z,57.23
2019-04-30T15:03:09.471Z,53.63
2019-04-30T15:05:43.549Z,59.15
2019-04-30T15:08:08.791Z,53.63
2019-04-30T15:10:37.919Z,54.58
2019-04-30T15:13:21.567Z,49.40
2019-04-30T15:15:49.412Z,52.30
2019-04-30T15:18:19.175Z,52.78
2019-04-30T15:20:49.762Z,48.40
2019-04-30T15:23:36.292Z,58.85
2019-04-30T15:26:05.113Z,49.50
2019-04-30T15:31:08.463Z,51.00
2019-04-30T15:33:38.644Z,48.77
2019-04-30T15:36:09.630Z,51.83
2019-04-30T15:38:55.602Z,47.67
2019-04-30T15:41:24.440Z,48.73
2019-04-30T15:43:53.244Z,47.47
2019-04-30T15:46:22.089Z,52.93
2019-04-30T15:48:50.821Z,45.67
2019-04-30T15:51:19.585Z,48.87
2019-04-30T15:53:48.323Z,49.67
2019-04-30T15:56:19.159Z,47.85
2019-04-30T15:59:05.497Z,53.78
2019-04-30T16:01:34.290Z,53.58
2019-04-30T16:04:03.492Z,49.55
2019-04-30T16:06:32.261Z,44.70
2019-04-30T16:09:02.634Z,39.17
2019-04-30T16:11:33.051Z,50.30
2019-04-30T16:14:09.240Z,42.70
2019-04-30T16:16:39.657Z,42.00
2019-04-30T16:19:09.130Z,45.10
2019-04-30T16:21:38.037Z,44.27
2019-04-30T16:24:08.600Z,44.30
2019-04-30T16:26:47.256Z,35.92
2019-04-30T16:29:09.831Z,37.35
2019-04-30T16:31:39.140Z,35.40
2019-04-30T16:34:08.035Z,41.85
2019-04-30T16:36:36.773Z,42.50
2019-04-30T16:39:08.757Z,39.23
2019-04-30T16:41:40.555Z,47.35
2019-04-30T16:44:09.221Z,49.73
2019-04-30T16:46:39.493Z,52.58
2019-04-30T16:49:10.193Z,55.00
2019-04-30T16:51:40.897Z,61.57
2019-04-30T16:54:09.668Z,51.40
2019-04-30T16:56:38.794Z,55.90
2019-04-30T16:59:15.293Z,52.05
2019-04-30T17:01:56.626Z,48.78
2019-04-30T17:04:19.258Z,51.87
2019-04-30T17:06:52.632Z,54.88
2019-04-30T17:09:25.776Z,51.15
2019-04-30T17:12:12.689Z,57.00
2019-04-30T17:14:45.037Z,52.57
2019-04-30T17:17:13.850Z,57.90
2019-04-30T17:19:42.685Z,57.98
2019-04-30T17:22:11.466Z,53.68
2019-04-30T17:24:40.309Z,60.95
2019-04-30T17:27:18.658Z,63.58
2019-04-30T17:29:39.620Z,66.15
2019-04-30T17:32:08.760Z,58.78
2019-04-30T17:34:38.979Z,57.17
2019-04-30T17:37:09.135Z,52.85
2019-04-30T17:39:40.892Z,54.50
2019-04-30T17:42:09.758Z,57.80
2019-04-30T17:44:39.741Z,66.25
2019-04-30T17:47:09.154Z,62.43
2019-04-30T17:49:37.872Z,59.93
2019-04-30T17:52:08.718Z,45.95
2019-04-30T17:54:37.456Z,53.63
2019-04-30T17:57:06.352Z,52.58
2019-04-30T17:59:36.847Z,45.40
2019-04-30T18:02:09.545Z,46.20
2019-04-30T18:04:38.238Z,53.42
2019-04-30T18:07:07.000Z,51.90
2019-04-30T18:09:35.742Z,52.62
2019-04-30T18:12:04.785Z,52.08
2019-04-30T18:14:35.153Z,61.55
2019-04-30T18:17:04.021Z,63.25
2019-04-30T18:19:50.136Z,64.17
2019-04-30T18:22:29.283Z,62.40
2019-04-30T18:25:15.684Z,63.00
2019-04-30T18:27:52.161Z,64.70
2019-04-30T18:30:22.537Z,58.37
2019-04-30T18:32:51.441Z,52.38
2019-04-30T18:35:20.346Z,57.05
2019-04-30T18:37:49.276Z,56.83
2019-04-30T18:40:18.669Z,58.42
2019-04-30T18:42:49.522Z,57.13
2019-04-30T18:45:19.443Z,56.92
2019-04-30T18:47:48.440Z,58.17
2019-04-30T18:50:17.411Z,60.45
2019-04-30T18:52:48.709Z,60.50
2019-04-30T18:55:19.178Z,64.62
2019-04-30T18:57:56.430Z,71.97
2019-04-30T19:00:20.176Z,70.97
2019-04-30T19:02:49.060Z,68.67
2019-04-30T19:05:19.456Z,65.83
2019-04-30T19:07:52.823Z,64.15
2019-04-30T19:10:26.080Z,67.97
2019-04-30T19:12:56.444Z,72.12
2019-04-30T19:16:11.431Z,71.22
2019-04-30T19:18:11.313Z,78.53
2019-04-30T19:20:41.729Z,74.30
2019-04-30T19:23:10.624Z,85.38
2019-04-30T19:25:39.593Z,79.77
2019-04-30T19:28:12.089Z,88.33
2019-04-30T19:30:39.070Z,83.20
2019-04-30T19:33:08.702Z,78.57
2019-04-30T19:35:37.716Z,75.92
2019-04-30T19:38:06.503Z,89.25
2019-04-30T19:40:35.357Z,89.25
2019-04-30T19:43:04.117Z,84.92
2019-04-30T19:45:32.952Z,83.72
2019-04-30T19:48:01.785Z,83.97
2019-04-30T19:50:30.557Z,79.10
2019-04-30T19:52:59.297Z,83.30
2019-04-30T19:55:28.571Z,90.57
2019-04-30T19:57:59.701Z,95.10
2019-04-30T20:00:29.110Z,93.47
2019-04-30T20:02:59.973Z,92.67
2019-04-30T20:05:28.970Z,98.80
2019-04-30T20:07:59.183Z,92.40
2019-04-30T20:10:28.772Z,82.05
2019-04-30T20:12:58.778Z,90.60
2019-04-30T20:15:29.657Z,93.62
2019-04-30T20:17:58.709Z,84.65
2019-04-30T20:20:28.838Z,91.28
2019-04-30T20:24:29.318Z,88.42
2019-04-30T20:27:06.384Z,97.82
2019-04-30T20:29:28.817Z,93.92
2019-04-30T20:31:58.986Z,95.40
2019-04-30T20:34:29.274Z,86.45
2019-04-30T20:37:00.177Z,91.53
2019-04-30T20:39:33.020Z,96.22
2019-04-30T20:42:01.789Z,85.67
2019-04-30T20:44:30.597Z,87.33
2019-04-30T20:46:59.438Z,90.15
2019-04-30T20:49:29.114Z,94.95
2019-04-30T20:51:58.977Z,87.12
2019-04-30T20:54:29.089Z,91.22
2019-04-30T20:56:58.953Z,90.22
2019-04-30T20:59:28.993Z,93.92
2019-04-30T21:01:58.036Z,96.95
2019-04-30T21:04:26.887Z,100.53
2019-04-30T21:06:55.693Z,99.83
2019-04-30T21:09:24.530Z,89.42
2019-04-30T21:11:53.344Z,101.05
2019-04-30T21:14:22.108Z,89.87
2019-04-30T21:16:50.878Z,92.15
2019-04-30T21:19:19.627Z,87.55
2019-04-30T21:21:49.739Z,81.40
2019-04-30T21:24:18.647Z,89.30
2019-04-30T21:26:47.493Z,93.33
2019-04-30T21:29:16.284Z,94.05
2019-04-30T21:31:58.393Z,83.55
2019-04-30T21:34:34.557Z,68.35
2019-04-30T21:37:03.339Z,73.47
2019-04-30T21:39:32.169Z,78.97
2019-04-30T21:42:00.977Z,75.80
2019-04-30T21:44:29.745Z,90.38
2019-04-30T21:46:58.553Z,78.60
2019-04-30T21:49:27.341Z,81.20
2019-04-30T21:51:56.093Z,82.15
2019-04-30T21:54:24.871Z,93.25
2019-04-30T21:56:53.608Z,102.67
2019-04-30T21:59:24.490Z,99.80
2019-04-30T22:01:52.936Z,92.05
2019-04-30T22:04:21.776Z,96.08
2019-04-30T22:06:50.689Z,97.92
2019-04-30T22:09:19.895Z,97.90
2019-04-30T22:11:49.422Z,86.65
2019-04-30T22:14:18.186Z,94.22
2019-04-30T22:16:47.044Z,88.65
2019-04-30T22:19:15.778Z,89.45
2019-04-30T22:21:44.547Z,91.00
2019-04-30T22:24:13.312Z,93.60
2019-04-30T22:26:42.092Z,91.03
2019-04-30T22:29:10.952Z,89.22
2019-04-30T22:31:39.784Z,94.65
2019-04-30T22:34:08.886Z,92.72
2019-04-30T22:36:39.305Z,89.87
2019-04-30T22:39:12.478Z,93.22
2019-04-30T22:41:41.248Z,87.92
2019-04-30T22:44:10.131Z,95.12
2019-04-30T22:46:39.442Z,95.55
2019-04-30T22:49:08.897Z,99.45
2019-04-30T22:51:37.665Z,98.97
2019-04-30T22:54:06.396Z,93.17
2019-04-30T22:56:35.220Z,89.20
2019-04-30T22:59:03.956Z,92.82
2019-04-30T23:01:34.371Z,98.85
2019-04-30T23:04:04.754Z,94.70
2019-04-30T23:06:33.555Z,100.42
2019-04-30T23:09:02.292Z,103.97
2019-04-30T23:11:31.065Z,105.07
2019-04-30T23:14:00.069Z,89.10
2019-04-30T23:16:28.832Z,99.07
2019-04-30T23:18:57.569Z,100.77
2019-04-30T23:21:26.357Z,107.90
2019-04-30T23:23:55.092Z,101.55
2019-04-30T23:26:23.957Z,80.00
2019-04-30T23:28:52.692Z,80.85
2019-04-30T23:31:21.430Z,84.22
2019-04-30T23:33:50.194Z,97.10
2019-04-30T23:36:18.969Z,88.12
2019-04-30T23:38:47.742Z,97.90
2019-04-30T23:41:16.545Z,92.85
2019-04-30T23:43:45.309Z,97.25
2019-04-30T23:46:14.041Z,94.03
2019-04-30T23:48:42.801Z,98.85
2019-04-30T23:51:11.542Z,100.67
2019-04-30T23:53:40.417Z,97.08
2019-04-30T23:56:09.148Z,97.50
2019-04-30T23:58:37.917Z,102.35
